Airfield :
LOGIN :

Register | Disclaimer

   EN    FR    IT 

 










Legend :    VFR   Marginal VFR   IFR   Intensive IFR   Very Intensive IFR
Visi :
Ceiling :
>= 8 km
>= 3000ft
5 to 8 km
1000 to 3000 ft
1500m to 5 km
500 to 1000 ft
800 to 1500m
200 to 500 ft
< 800m
< 200 ft
Symbols :   Thunderstorms  Fog  Heavy snow  Heavy precipitations  Wind > 20 kt
SIGMETs :     Misc.  Thunderstorms  Icing  Turbulence  Mountain Waves  Volcanic Ashes






- Airport Elevation : 160 ft
- IATA code : FMO


EDDG - Münster Osnabrück Int.

CURRENT METAR :
  • 290620Z 35010KT 9999 SCT034 03/M02 Q1025 NOSIG

EXPIRED METARs :
  • 290550Z 35008KT CAVOK 03/M02 Q1025 NOSIG
  • 290520Z 35008KT 9999 FEW037 03/M02 Q1025 NOSIG
  • 290450Z 35008KT 9999 FEW035 03/M02 Q1024 NOSIG
  • 290420Z 34009KT 9999 FEW035 03/M01 Q1024 NOSIG
  • 290350Z 34009KT CAVOK 04/M01 Q1024 NOSIG

TAF TAF EDDG
Valid from the 29 at 06:00 until the 30 at 06:00 UTC


290500Z 2906/3006 35010KT 9999 SCT025
BECMG 2907/2910 01015G25KT
TEMPO 2908/2915 4000 -SHSNRA BKN012TCU
PROB30
TEMPO 2909/2912 2500 SHSNRA
TEMPO 2911/2915 02020G30KT
BECMG 2915/2918 01010KT
BECMG 2921/2924 VRB03KT



MET'MAP, your aeronautical weather chart ! - Copyright ORBIFLY December 2007 - Disclaimer

ORBIFLY MET'MAP TEAM :

Programming & Development : Alexandra Zaïnal
Concept & original design : Baudouin d'Aumeries
Assistance for programming : Marc-Olivier Méhu
Technical & hardware support : Manuel Goepfert

Contact : metmap@orbifly.com




SOURCES & CREDITS :

   NOAA